createdAt,value
2017-10-15T00:00:19.180Z,35.92
2017-10-15T00:02:46.732Z,41.15
2017-10-15T00:05:14.311Z,44.40
2017-10-15T00:07:41.843Z,39.20
2017-10-15T00:10:09.375Z,37.40
2017-10-15T00:12:37.099Z,42.10
2017-10-15T00:15:04.632Z,33.22
2017-10-15T00:17:32.159Z,38.88
2017-10-15T00:19:59.745Z,28.75
2017-10-15T00:22:27.268Z,39.30
2017-10-15T00:24:54.917Z,25.40
2017-10-15T00:27:22.658Z,37.28
2017-10-15T00:29:50.187Z,36.97
2017-10-15T00:32:17.711Z,35.15
2017-10-15T00:34:45.446Z,29.95
2017-10-15T00:37:12.976Z,33.30
2017-10-15T00:39:40.503Z,41.90
2017-10-15T00:42:08.108Z,47.83
2017-10-15T00:44:35.632Z,29.87
2017-10-15T00:47:03.160Z,34.90
2017-10-15T00:49:30.739Z,35.38
2017-10-15T00:51:58.269Z,34.30
2017-10-15T00:54:25.888Z,28.30
2017-10-15T00:56:53.447Z,33.03
2017-10-15T00:59:21.027Z,34.80
2017-10-15T01:01:48.550Z,30.67
2017-10-15T01:04:16.255Z,34.90
2017-10-15T01:06:43.795Z,34.28
2017-10-15T01:09:11.315Z,32.63
2017-10-15T01:11:39.030Z,36.22
2017-10-15T01:14:06.555Z,39.28
2017-10-15T01:16:34.075Z,37.15
2017-10-15T01:19:01.935Z,42.50
2017-10-15T01:21:29.493Z,39.53
2017-10-15T01:23:57.020Z,37.97
2017-10-15T01:26:24.610Z,34.60
2017-10-15T01:28:52.136Z,39.55
2017-10-15T01:31:19.667Z,32.80
2017-10-15T01:33:47.370Z,39.85
2017-10-15T01:36:14.891Z,47.50
2017-10-15T01:38:42.413Z,43.28
2017-10-15T01:41:09.991Z,39.40
2017-10-15T01:43:37.574Z,40.17
2017-10-15T01:46:05.265Z,45.80
2017-10-15T01:48:33.044Z,44.60
2017-10-15T01:51:00.571Z,46.05
2017-10-15T01:53:28.103Z,41.05
2017-10-15T01:55:55.919Z,49.58
2017-10-15T01:58:23.445Z,50.45
2017-10-15T02:00:50.991Z,47.20
2017-10-15T02:03:18.798Z,44.35
2017-10-15T02:05:47.096Z,37.45
2017-10-15T02:08:14.619Z,46.85
2017-10-15T02:10:42.327Z,48.60
2017-10-15T02:13:09.856Z,60.70
2017-10-15T02:15:37.383Z,53.70
2017-10-15T02:18:05.179Z,51.95
2017-10-15T02:20:32.704Z,46.35
2017-10-15T02:23:00.228Z,48.78
2017-10-15T02:25:27.972Z,43.65
2017-10-15T02:27:55.503Z,46.88
2017-10-15T02:30:23.028Z,49.00
2017-10-15T02:32:50.843Z,45.85
2017-10-15T02:35:18.411Z,44.80
2017-10-15T02:37:45.944Z,49.25
2017-10-15T02:40:13.723Z,45.88
2017-10-15T02:42:41.251Z,48.25
2017-10-15T02:45:08.774Z,47.90
2017-10-15T02:47:36.504Z,41.75
2017-10-15T02:50:04.031Z,41.13
2017-10-15T02:52:31.565Z,49.72
2017-10-15T02:54:59.591Z,40.97
2017-10-15T02:57:27.120Z,44.20
2017-10-15T02:59:54.654Z,42.28
2017-10-15T03:02:22.599Z,46.70
2017-10-15T03:04:50.122Z,40.00
2017-10-15T03:07:17.643Z,35.58
2017-10-15T03:09:45.352Z,35.55
2017-10-15T03:12:12.887Z,38.83
2017-10-15T03:14:40.415Z,36.13
2017-10-15T03:17:08.060Z,37.35
2017-10-15T03:19:35.586Z,46.25
2017-10-15T03:22:03.112Z,40.28
2017-10-15T03:24:30.692Z,40.22
2017-10-15T03:26:58.222Z,42.40
2017-10-15T03:29:25.754Z,42.13
2017-10-15T03:31:53.339Z,51.78
2017-10-15T03:34:20.864Z,45.42
2017-10-15T03:36:48.399Z,44.25
2017-10-15T03:39:16.063Z,44.95
2017-10-15T03:41:43.593Z,53.40
2017-10-15T03:44:11.115Z,45.63
2017-10-15T03:46:38.944Z,60.22
2017-10-15T03:49:06.463Z,44.38
2017-10-15T03:51:33.983Z,42.22
2017-10-15T03:54:01.727Z,42.25
2017-10-15T03:56:29.256Z,40.80
2017-10-15T03:58:56.788Z,40.30
2017-10-15T04:01:24.624Z,37.30
2017-10-15T04:03:52.180Z,41.22
2017-10-15T04:06:19.703Z,49.05
2017-10-15T04:08:47.387Z,39.90
2017-10-15T04:11:14.915Z,48.00
2017-10-15T04:13:42.438Z,46.53
2017-10-15T04:16:10.299Z,41.33
2017-10-15T04:18:37.822Z,46.83
2017-10-15T04:21:05.360Z,42.92
2017-10-15T04:23:33.074Z,34.00
2017-10-15T04:26:00.601Z,36.63
2017-10-15T04:28:28.129Z,45.47
2017-10-15T04:30:55.755Z,39.05
2017-10-15T04:33:23.277Z,80.03
2017-10-15T04:35:50.949Z,48.85
2017-10-15T04:38:18.714Z,52.47
2017-10-15T04:40:46.244Z,42.45
2017-10-15T04:43:13.771Z,34.75
2017-10-15T04:45:41.423Z,37.10
2017-10-15T04:48:08.951Z,37.20
2017-10-15T04:50:36.479Z,37.03
2017-10-15T04:53:04.372Z,31.80
2017-10-15T04:55:31.909Z,48.08
2017-10-15T04:57:59.438Z,51.08
2017-10-15T05:00:27.150Z,34.00
2017-10-15T05:02:54.675Z,33.13
2017-10-15T05:05:22.199Z,48.78
2017-10-15T05:07:50.140Z,32.17
2017-10-15T05:10:17.667Z,37.97
2017-10-15T05:12:45.224Z,40.38
2017-10-15T05:15:13.087Z,40.53
2017-10-15T05:17:40.606Z,32.60
2017-10-15T05:20:08.128Z,43.38
2017-10-15T05:22:35.897Z,36.55
2017-10-15T05:25:03.422Z,43.17
2017-10-15T05:27:30.956Z,41.60
2017-10-15T05:29:58.886Z,32.28
2017-10-15T05:32:26.415Z,34.92
2017-10-15T05:34:53.934Z,34.30
2017-10-15T05:37:21.786Z,33.28
2017-10-15T05:39:49.313Z,32.97
2017-10-15T05:42:16.841Z,39.35
2017-10-15T05:44:44.661Z,30.02
2017-10-15T05:47:12.181Z,29.98
2017-10-15T05:49:39.710Z,27.92
2017-10-15T05:52:07.431Z,29.10
2017-10-15T05:54:34.955Z,30.37
2017-10-15T05:57:02.489Z,29.55
2017-10-15T05:59:30.211Z,31.05
2017-10-15T06:01:57.761Z,30.12
2017-10-15T06:04:25.326Z,32.58
2017-10-15T06:06:52.986Z,23.17
2017-10-15T06:09:20.519Z,22.17
2017-10-15T06:11:48.048Z,31.27
2017-10-15T06:14:15.619Z,32.00
2017-10-15T06:16:43.158Z,25.98
2017-10-15T06:19:10.683Z,27.48
2017-10-15T06:21:38.567Z,29.27
2017-10-15T06:24:06.155Z,27.33
2017-10-15T06:26:33.715Z,27.55
2017-10-15T06:29:01.562Z,22.95
2017-10-15T06:31:29.087Z,26.48
2017-10-15T06:33:56.621Z,27.55
2017-10-15T06:36:24.520Z,26.37
2017-10-15T06:38:52.052Z,23.83
2017-10-15T06:41:19.580Z,26.27
2017-10-15T06:43:47.251Z,25.35
2017-10-15T06:46:14.791Z,25.15
2017-10-15T06:48:42.328Z,24.83
2017-10-15T06:51:10.234Z,25.20
2017-10-15T06:53:37.776Z,20.73
2017-10-15T06:56:05.317Z,26.42
2017-10-15T06:58:32.991Z,30.88
2017-10-15T07:01:00.570Z,26.60
2017-10-15T07:03:28.098Z,32.92
2017-10-15T07:05:55.843Z,23.40
2017-10-15T07:08:23.363Z,28.40
2017-10-15T07:10:50.883Z,23.47
2017-10-15T07:13:18.467Z,26.08
2017-10-15T07:15:45.992Z,24.63
2017-10-15T07:18:13.519Z,26.47
2017-10-15T07:20:41.201Z,20.17
2017-10-15T07:23:08.731Z,19.30
2017-10-15T07:25:36.317Z,22.97
2017-10-15T07:28:04.099Z,20.67
2017-10-15T07:30:31.619Z,21.43
2017-10-15T07:32:59.185Z,21.33
2017-10-15T07:35:26.964Z,22.43
2017-10-15T07:37:54.487Z,24.30
2017-10-15T07:40:22.006Z,22.00
2017-10-15T07:42:49.839Z,31.03
2017-10-15T07:45:17.375Z,23.33
2017-10-15T07:47:44.900Z,34.93
2017-10-15T07:50:13.051Z,21.63
2017-10-15T07:52:40.643Z,22.50
2017-10-15T07:55:08.194Z,22.73
2017-10-15T07:57:35.947Z,26.23
2017-10-15T08:00:03.475Z,25.20
2017-10-15T08:02:30.996Z,26.50
2017-10-15T08:04:58.806Z,24.93
2017-10-15T08:07:26.342Z,30.43
2017-10-15T08:09:53.926Z,22.00
2017-10-15T08:12:21.805Z,22.77
2017-10-15T08:14:49.347Z,20.33
2017-10-15T08:17:16.999Z,24.37
2017-10-15T08:19:44.890Z,23.70
2017-10-15T08:22:12.496Z,22.63
2017-10-15T08:24:40.082Z,19.40
2017-10-15T08:27:07.768Z,20.70
2017-10-15T08:29:35.390Z,22.13
2017-10-15T08:32:03.016Z,19.70
2017-10-15T08:34:30.595Z,18.33
2017-10-15T08:36:58.119Z,18.57
2017-10-15T08:39:27.746Z,23.13
2017-10-15T08:41:55.675Z,21.43
2017-10-15T08:44:23.275Z,19.83
2017-10-15T08:46:50.794Z,17.37
2017-10-15T08:49:18.456Z,19.70
2017-10-15T08:51:46.371Z,16.50
2017-10-15T08:54:13.901Z,22.20
2017-10-15T08:56:41.499Z,23.23
2017-10-15T08:59:09.032Z,22.03
2017-10-15T09:01:36.555Z,24.50
2017-10-15T09:04:04.217Z,25.90
2017-10-15T09:06:31.742Z,29.37
2017-10-15T09:08:59.445Z,23.40
2017-10-15T09:11:27.353Z,32.67
2017-10-15T09:13:54.991Z,30.53
2017-10-15T09:16:22.630Z,25.13
2017-10-15T09:18:50.532Z,17.03
2017-10-15T09:21:18.080Z,13.07
2017-10-15T09:23:45.725Z,20.23
2017-10-15T09:26:13.315Z,13.10
2017-10-15T09:28:41.044Z,13.23
2017-10-15T09:31:08.563Z,15.13
2017-10-15T09:33:36.386Z,12.40
2017-10-15T09:36:05.023Z,12.97
2017-10-15T09:38:32.619Z,16.50
2017-10-15T09:41:00.714Z,14.47
2017-10-15T09:43:28.553Z,13.07
2017-10-15T09:45:56.420Z,10.80
2017-10-15T09:48:24.493Z,11.30
2017-10-15T09:50:52.231Z,10.73
2017-10-15T09:53:19.760Z,10.43
2017-10-15T09:55:47.580Z,9.40
2017-10-15T09:58:15.349Z,11.90
2017-10-15T10:00:43.208Z,13.50
2017-10-15T10:03:11.382Z,10.33
2017-10-15T10:05:39.919Z,9.93
2017-10-15T10:08:07.625Z,9.40
2017-10-15T10:10:35.704Z,9.70
2017-10-15T10:13:03.350Z,9.10
2017-10-15T10:15:31.021Z,8.43
2017-10-15T10:17:58.751Z,8.30
2017-10-15T10:20:26.338Z,7.68
2017-10-15T10:22:54.096Z,13.38
2017-10-15T10:25:21.982Z,7.80
2017-10-15T10:27:49.503Z,13.82
2017-10-15T10:30:17.100Z,8.15
2017-10-15T10:32:44.856Z,11.57
2017-10-15T10:35:12.619Z,11.50
2017-10-15T10:37:40.157Z,7.60
2017-10-15T10:40:07.837Z,12.55
2017-10-15T10:42:35.364Z,10.23
2017-10-15T10:45:02.879Z,8.30
2017-10-15T10:47:30.507Z,7.72
2017-10-15T10:49:58.024Z,9.88
2017-10-15T10:52:25.575Z,7.87
2017-10-15T10:54:53.363Z,7.57
2017-10-15T10:57:20.884Z,9.82
2017-10-15T10:59:48.411Z,9.73
2017-10-15T11:02:16.065Z,12.45
2017-10-15T11:04:43.604Z,9.32
2017-10-15T11:07:11.466Z,11.30
2017-10-15T11:09:39.062Z,9.50
2017-10-15T11:12:06.583Z,10.20
2017-10-15T11:14:34.149Z,8.93
2017-10-15T11:17:02.748Z,8.82
2017-10-15T11:19:31.100Z,8.80
2017-10-15T11:21:59.185Z,10.13
2017-10-15T11:24:27.096Z,8.68
2017-10-15T11:26:55.819Z,8.70
2017-10-15T11:29:23.360Z,10.57
2017-10-15T11:31:51.211Z,8.68
2017-10-15T11:34:18.784Z,11.23
2017-10-15T11:36:46.468Z,9.95
2017-10-15T11:39:14.266Z,8.70
2017-10-15T11:41:41.910Z,9.80
2017-10-15T11:44:09.639Z,8.93
2017-10-15T11:46:37.431Z,8.13
2017-10-15T11:49:04.964Z,10.18
2017-10-15T11:51:32.514Z,7.43
2017-10-15T11:54:00.107Z,7.25
2017-10-15T11:56:27.635Z,10.20
2017-10-15T11:58:55.251Z,9.13
2017-10-15T12:01:23.003Z,6.97
2017-10-15T12:03:50.519Z,9.05
2017-10-15T12:06:18.029Z,7.37
2017-10-15T12:08:45.683Z,9.80
2017-10-15T12:11:13.211Z,8.13
2017-10-15T12:13:40.810Z,10.50
2017-10-15T12:16:08.691Z,8.30
2017-10-15T12:18:36.212Z,9.07
2017-10-15T12:21:03.735Z,14.07
2017-10-15T12:23:31.296Z,13.60
2017-10-15T12:25:58.840Z,12.73
2017-10-15T12:28:26.363Z,12.43
2017-10-15T12:30:54.001Z,9.50
2017-10-15T12:33:21.522Z,16.63
2017-10-15T12:35:49.039Z,11.27
2017-10-15T12:38:17.030Z,14.10
2017-10-15T12:40:44.550Z,11.97
2017-10-15T12:43:12.072Z,16.23
2017-10-15T12:45:39.891Z,14.50
2017-10-15T12:48:07.412Z,12.20
2017-10-15T12:50:34.931Z,15.77
2017-10-15T12:53:02.671Z,10.80
2017-10-15T12:55:30.191Z,15.13
2017-10-15T12:57:58.219Z,15.57
2017-10-15T13:00:25.859Z,13.80
2017-10-15T13:02:53.387Z,12.73
2017-10-15T13:05:20.912Z,12.47
2017-10-15T13:07:48.670Z,12.37
2017-10-15T13:10:16.188Z,14.30
2017-10-15T13:12:43.703Z,12.70
2017-10-15T13:15:11.335Z,16.40
2017-10-15T13:17:38.862Z,16.33
2017-10-15T13:20:06.381Z,14.90
2017-10-15T13:22:34.100Z,16.30
2017-10-15T13:25:01.620Z,15.40
2017-10-15T13:27:29.144Z,21.10
2017-10-15T13:29:56.819Z,17.13
2017-10-15T13:32:24.335Z,14.93
2017-10-15T13:34:51.858Z,14.33
2017-10-15T13:37:19.759Z,16.37
2017-10-15T13:39:47.274Z,8.40
2017-10-15T13:42:14.800Z,13.77
2017-10-15T13:44:42.539Z,14.80
2017-10-15T13:47:10.056Z,15.97
2017-10-15T13:49:37.574Z,11.57
2017-10-15T13:52:05.169Z,9.70
2017-10-15T13:54:32.691Z,12.97
2017-10-15T13:57:00.211Z,12.50
2017-10-15T13:59:28.003Z,10.23
2017-10-15T14:01:55.518Z,12.87
2017-10-15T14:04:23.035Z,10.13
2017-10-15T14:06:50.639Z,9.33
2017-10-15T14:09:18.156Z,9.60
2017-10-15T14:11:45.671Z,14.07
2017-10-15T14:14:13.481Z,8.37
2017-10-15T14:16:41.007Z,12.10
2017-10-15T14:19:08.556Z,13.67
2017-10-15T14:21:36.448Z,10.63
2017-10-15T14:24:03.972Z,15.70
2017-10-15T14:26:31.487Z,9.47
2017-10-15T14:28:59.184Z,8.00
2017-10-15T14:31:26.699Z,9.90
2017-10-15T14:33:54.263Z,8.70
2017-10-15T14:36:22.099Z,11.77
2017-10-15T14:38:49.624Z,13.67
2017-10-15T14:41:17.140Z,7.80
2017-10-15T14:43:44.773Z,8.70
2017-10-15T14:46:12.295Z,11.73
2017-10-15T14:48:39.824Z,10.33
2017-10-15T14:51:07.419Z,12.03
2017-10-15T14:53:35.166Z,6.63
2017-10-15T14:56:02.696Z,11.40
2017-10-15T14:58:30.825Z,17.67
2017-10-15T15:00:59.347Z,17.00
2017-10-15T15:03:28.612Z,12.10
2017-10-15T15:05:56.429Z,13.20
2017-10-15T15:08:23.963Z,12.10
2017-10-15T15:10:51.816Z,8.10
2017-10-15T15:13:19.640Z,8.87
2017-10-15T15:15:47.292Z,10.03
2017-10-15T15:20:47.396Z,12.40
2017-10-15T15:23:14.911Z,9.37
2017-10-15T15:25:43.343Z,25.13
2017-10-15T15:28:11.001Z,9.80
2017-10-15T15:30:38.543Z,12.47
2017-10-15T15:33:07.347Z,11.13
2017-10-15T15:35:35.320Z,10.80
2017-10-15T15:38:02.832Z,8.80
2017-10-15T15:40:30.348Z,9.87
2017-10-15T15:43:00.072Z,8.60
2017-10-15T15:45:28.728Z,15.10
2017-10-15T15:47:56.503Z,12.80
2017-10-15T15:50:24.230Z,10.37
2017-10-15T15:52:52.020Z,15.93
2017-10-15T15:55:19.785Z,13.83
2017-10-15T15:57:47.773Z,13.80
2017-10-15T16:00:15.523Z,18.77
2017-10-15T16:02:43.178Z,17.30
2017-10-15T16:05:11.248Z,13.90
2017-10-15T16:07:40.139Z,14.67
2017-10-15T16:10:09.029Z,11.60
2017-10-15T16:12:36.867Z,13.50
2017-10-15T16:15:05.498Z,16.93
2017-10-15T16:17:33.546Z,16.73
2017-10-15T16:20:01.308Z,15.63
2017-10-15T16:22:29.999Z,15.43
2017-10-15T16:24:57.808Z,13.40
2017-10-15T16:27:25.835Z,20.00
2017-10-15T16:29:53.482Z,14.83
2017-10-15T16:32:22.924Z,17.10
2017-10-15T16:34:50.868Z,13.70
2017-10-15T16:37:18.735Z,17.80
2017-10-15T16:39:46.279Z,13.47
2017-10-15T16:42:13.869Z,20.10
2017-10-15T16:44:41.389Z,14.47
2017-10-15T16:47:08.913Z,16.90
2017-10-15T16:49:36.499Z,18.73
2017-10-15T16:52:04.179Z,33.57
2017-10-15T16:54:31.716Z,14.53
2017-10-15T16:56:59.587Z,19.23
2017-10-15T16:59:27.125Z,21.93
2017-10-15T17:01:55.411Z,22.20
2017-10-15T17:04:22.989Z,26.10
2017-10-15T17:06:50.675Z,22.80
2017-10-15T17:09:18.333Z,22.03
2017-10-15T17:11:46.814Z,58.93
2017-10-15T17:14:14.783Z,22.17
2017-10-15T17:16:42.651Z,28.17
2017-10-15T17:19:10.619Z,30.93
2017-10-15T17:21:38.490Z,38.77
2017-10-15T17:24:06.352Z,32.60
2017-10-15T17:26:34.512Z,28.57
2017-10-15T17:29:02.391Z,31.63
2017-10-15T17:31:30.467Z,28.00
2017-10-15T17:33:59.456Z,35.47
2017-10-15T17:36:29.065Z,27.60
2017-10-15T17:38:56.697Z,22.73
2017-10-15T17:41:25.000Z,25.67
2017-10-15T17:43:52.663Z,23.37
2017-10-15T17:46:20.275Z,22.13
2017-10-15T17:48:49.597Z,17.27
2017-10-15T17:51:17.500Z,21.97
2017-10-15T17:53:45.070Z,15.47
2017-10-15T17:56:13.121Z,19.67
2017-10-15T17:58:41.828Z,20.03
2017-10-15T18:01:09.791Z,13.87
2017-10-15T18:03:38.049Z,19.30
2017-10-15T18:06:05.728Z,20.13
2017-10-15T18:08:33.680Z,27.43
2017-10-15T18:11:01.649Z,19.90
2017-10-15T18:13:29.311Z,24.83
2017-10-15T18:15:56.872Z,22.63
2017-10-15T18:18:25.147Z,23.90
2017-10-15T18:20:54.037Z,22.17
2017-10-15T18:23:21.722Z,20.10
2017-10-15T18:25:50.648Z,25.33
2017-10-15T18:28:18.445Z,21.00
2017-10-15T18:30:46.219Z,19.80
2017-10-15T18:33:15.237Z,19.03
2017-10-15T18:35:43.078Z,21.90
2017-10-15T18:38:10.846Z,22.20
2017-10-15T18:40:38.811Z,28.50
2017-10-15T18:43:08.522Z,25.43
2017-10-15T18:45:36.491Z,30.60
2017-10-15T18:48:04.666Z,18.17
2017-10-15T18:50:32.323Z,19.97
2017-10-15T18:53:00.306Z,21.47
2017-10-15T18:55:29.306Z,27.13
2017-10-15T18:57:57.166Z,21.87
2017-10-15T19:00:25.020Z,19.90
2017-10-15T19:02:53.254Z,19.43
2017-10-15T19:05:21.121Z,18.60
2017-10-15T19:07:48.823Z,21.03
2017-10-15T19:10:17.319Z,24.40
2017-10-15T19:12:45.065Z,17.30
2017-10-15T19:15:12.847Z,27.90
2017-10-15T19:17:40.700Z,38.33
2017-10-15T19:20:08.465Z,26.13
2017-10-15T19:22:36.330Z,22.53
2017-10-15T19:25:04.318Z,20.60
2017-10-15T19:27:32.676Z,25.43
2017-10-15T19:30:00.284Z,28.97
2017-10-15T19:32:28.103Z,20.93
2017-10-15T19:34:55.761Z,36.37
2017-10-15T19:37:23.731Z,26.03
2017-10-15T19:39:51.632Z,21.33
2017-10-15T19:42:19.373Z,25.30
2017-10-15T19:44:47.229Z,21.30
2017-10-15T19:47:15.984Z,22.93
2017-10-15T19:49:43.678Z,29.57
2017-10-15T19:52:11.441Z,20.07
2017-10-15T19:54:39.533Z,22.83
2017-10-15T19:57:07.143Z,18.47
2017-10-15T19:59:34.938Z,17.63
2017-10-15T20:02:02.906Z,18.67
2017-10-15T20:04:30.593Z,21.27
2017-10-15T20:06:58.154Z,23.83
2017-10-15T20:09:25.975Z,34.43
2017-10-15T20:11:53.828Z,21.43
2017-10-15T20:14:21.376Z,21.67
2017-10-15T20:16:50.102Z,20.07
2017-10-15T20:19:17.884Z,19.50
2017-10-15T20:21:46.392Z,23.13
2017-10-15T20:24:14.222Z,21.13
2017-10-15T20:26:41.895Z,19.50
2017-10-15T20:29:10.147Z,26.87
2017-10-15T20:31:38.243Z,19.43
2017-10-15T20:34:06.602Z,18.93
2017-10-15T20:36:34.412Z,22.20
2017-10-15T20:39:02.334Z,20.73
2017-10-15T20:41:30.138Z,17.57
2017-10-15T20:44:00.862Z,18.40
2017-10-15T20:46:28.877Z,26.10
2017-10-15T20:48:56.882Z,17.73
2017-10-15T20:51:24.637Z,18.63
2017-10-15T20:53:52.707Z,16.63
2017-10-15T20:56:20.275Z,18.03
2017-10-15T20:58:48.139Z,20.67
2017-10-15T21:01:16.224Z,19.43
2017-10-15T21:03:43.743Z,22.63
2017-10-15T21:06:11.288Z,24.90
2017-10-15T21:08:38.831Z,14.90
2017-10-15T21:11:06.387Z,27.97
2017-10-15T21:13:33.928Z,21.33
2017-10-15T21:16:01.916Z,19.43
2017-10-15T21:18:29.440Z,20.30
2017-10-15T21:20:56.985Z,18.63
2017-10-15T21:23:24.543Z,16.50
2017-10-15T21:25:52.064Z,23.77
2017-10-15T21:28:19.583Z,16.97
2017-10-15T21:30:47.160Z,16.70
2017-10-15T21:33:14.680Z,24.90
2017-10-15T21:35:42.199Z,16.80
2017-10-15T21:38:09.771Z,23.10
2017-10-15T21:40:37.291Z,19.97
2017-10-15T21:43:04.811Z,13.00
2017-10-15T21:45:32.564Z,21.43
2017-10-15T21:48:00.099Z,28.10
2017-10-15T21:50:27.639Z,16.30
2017-10-15T21:52:55.337Z,21.10
2017-10-15T21:55:22.915Z,17.03
2017-10-15T21:57:51.395Z,32.20
2017-10-15T22:00:19.151Z,16.60
2017-10-15T22:02:46.684Z,18.40
2017-10-15T22:05:14.211Z,19.10
2017-10-15T22:07:42.042Z,19.10
2017-10-15T22:10:09.599Z,14.40
2017-10-15T22:12:37.169Z,19.83
2017-10-15T22:15:05.026Z,17.53
2017-10-15T22:17:32.586Z,11.90
2017-10-15T22:20:00.129Z,19.00
2017-10-15T22:22:27.679Z,25.40
2017-10-15T22:24:55.220Z,15.83
2017-10-15T22:27:22.745Z,20.60
2017-10-15T22:29:50.567Z,26.43
2017-10-15T22:32:18.145Z,19.27
2017-10-15T22:34:45.728Z,17.90
2017-10-15T22:37:13.468Z,18.03
2017-10-15T22:39:41.028Z,20.60
2017-10-15T22:42:08.586Z,18.03
2017-10-15T22:44:36.331Z,20.50
2017-10-15T22:47:03.854Z,15.80
2017-10-15T22:49:31.376Z,17.70
2017-10-15T22:51:59.131Z,18.50
2017-10-15T22:54:26.702Z,17.97
2017-10-15T22:56:54.228Z,18.33
2017-10-15T22:59:21.800Z,19.40
2017-10-15T23:01:49.323Z,15.50
2017-10-15T23:04:16.844Z,19.63
2017-10-15T23:06:44.588Z,14.80
2017-10-15T23:09:12.911Z,22.50
2017-10-15T23:11:40.437Z,19.17
2017-10-15T23:14:07.991Z,14.83
2017-10-15T23:16:35.539Z,22.97
2017-10-15T23:19:03.101Z,14.87
2017-10-15T23:21:30.676Z,16.42
2017-10-15T23:23:58.218Z,19.73
2017-10-15T23:26:25.793Z,17.27
2017-10-15T23:28:53.521Z,18.37
2017-10-15T23:31:21.048Z,20.00
2017-10-15T23:33:48.593Z,17.83
2017-10-15T23:36:16.219Z,14.57
2017-10-15T23:38:43.776Z,18.77
2017-10-15T23:41:11.312Z,17.45
2017-10-15T23:43:39.203Z,18.75
2017-10-15T23:46:06.763Z,20.50
2017-10-15T23:48:34.287Z,25.43
2017-10-15T23:51:02.167Z,22.20
2017-10-15T23:53:29.687Z,17.17
2017-10-15T23:55:57.206Z,25.63
2017-10-15T23:58:25.172Z,23.40
